sensor_id;sensor_type;location;lat;lon;timestamp;pressure;altitude;pressure_sealevel;temperature;humidity
1371;BME280;14306;49.942;11.570;2024-03-23T00:54:35;96762.72;;;9.23;100.00
1371;BME280;14306;49.942;11.570;2024-03-23T00:56:07;96751.63;;;9.24;100.00
1371;BME280;14306;49.942;11.570;2024-03-23T00:57:40;96759.59;;;9.29;100.00
1371;BME280;14306;49.942;11.570;2024-03-23T00:59:14;96759.59;;;9.29;100.00
1371;BME280;14306;49.942;11.570;2024-03-23T01:00:47;96762.63;;;9.36;100.00
1371;BME280;14306;49.942;11.570;2024-03-23T01:02:20;96753.56;;;9.32;100.00
1371;BME280;14306;49.942;11.570;2024-03-23T01:03:53;96751.53;;;9.38;100.00
1371;BME280;14306;49.942;11.570;2024-03-23T01:05:25;96754.22;;;9.38;100.00
1371;BME280;14306;49.942;11.570;2024-03-23T01:06:58;96752.78;;;9.32;100.00
1371;BME280;14306;49.942;11.570;2024-03-23T01:08:30;96746.56;;;9.31;100.00
1371;BME280;14306;49.942;11.570;2024-03-23T01:10:03;96748.47;;;9.31;100.00
1371;BME280;14306;49.942;11.570;2024-03-23T01:11:37;96746.81;;;9.13;100.00
1371;BME280;14306;49.942;11.570;2024-03-23T01:13:09;96751.25;;;9.17;100.00
1371;BME280;14306;49.942;11.570;2024-03-23T01:14:43;96747.06;;;9.03;100.00
1371;BME280;14306;49.942;11.570;2024-03-23T01:16:16;96740.84;;;8.94;100.00
1371;BME280;14306;49.942;11.570;2024-03-23T01:17:48;96739.22;;;8.93;100.00
1371;BME280;14306;49.942;11.570;2024-03-23T01:19:21;96741.34;;;8.74;100.00
1371;BME280;14306;49.942;11.570;2024-03-23T01:20:54;96738.28;;;8.67;100.00
1371;BME280;14306;49.942;11.570;2024-03-23T01:22:26;96730.81;;;8.64;100.00
1371;BME280;14306;49.942;11.570;2024-03-23T01:24:00;96726.50;;;8.63;100.00
1371;BME280;14306;49.942;11.570;2024-03-23T01:25:32;96714.91;;;8.62;100.00
1371;BME280;14306;49.942;11.570;2024-03-23T01:27:04;96729.16;;;8.76;100.00
1371;BME280;14306;49.942;11.570;2024-03-23T01:28:38;96709.91;;;8.78;100.00
1371;BME280;14306;49.942;11.570;2024-03-23T01:30:12;96718.25;;;8.90;100.00
1371;BME280;14306;49.942;11.570;2024-03-23T01:31:45;96715.59;;;8.98;100.00
1371;BME280;14306;49.942;11.570;2024-03-23T01:33:19;96704.66;;;9.03;100.00
1371;BME280;14306;49.942;11.570;2024-03-23T01:34:51;96690.72;;;9.10;100.00
1371;BME280;14306;49.942;11.570;2024-03-23T01:36:23;96707.28;;;9.25;100.00
1371;BME280;14306;49.942;11.570;2024-03-23T01:37:56;96697.69;;;9.11;100.00
1371;BME280;14306;49.942;11.570;2024-03-23T01:39:29;96699.66;;;9.27;100.00
1371;BME280;14306;49.942;11.570;2024-03-23T01:41:02;96705.06;;;9.27;100.00
1371;BME280;14306;49.942;11.570;2024-03-23T01:42:34;96697.97;;;9.40;100.00
1371;BME280;14306;49.942;11.570;2024-03-23T01:44:07;96699.41;;;9.46;100.00
1371;BME280;14306;49.942;11.570;2024-03-23T01:45:41;96693.69;;;9.47;100.00
1371;BME280;14306;49.942;11.570;2024-03-23T01:47:14;96700.25;;;9.63;100.00
1371;BME280;14306;49.942;11.570;2024-03-23T01:48:47;96683.38;;;9.58;100.00
1371;BME280;14306;49.942;11.570;2024-03-23T01:50:20;96700.41;;;9.75;100.00
1371;BME280;14306;49.942;11.570;2024-03-23T01:51:52;96687.56;;;9.72;100.00
1371;BME280;14306;49.942;11.570;2024-03-23T01:53:26;96694.38;;;9.78;100.00
1371;BME280;14306;49.942;11.570;2024-03-23T01:55:01;96688.50;;;9.76;100.00
1371;BME280;14306;49.942;11.570;2024-03-23T01:56:34;96677.38;;;9.78;100.00
1371;BME280;14306;49.942;11.570;2024-03-23T01:58:08;96674.97;;;9.68;100.00
1371;BME280;14306;49.942;11.570;2024-03-23T01:59:40;96671.63;;;9.71;100.00
1371;BME280;14306;49.942;11.570;2024-03-23T02:01:14;96655.56;;;9.66;100.00
1371;BME280;14306;49.942;11.570;2024-03-23T02:02:47;96655.25;;;9.76;100.00
1371;BME280;14306;49.942;11.570;2024-03-23T02:04:20;96679.13;;;9.82;100.00
1371;BME280;14306;49.942;11.570;2024-03-23T02:05:53;96661.94;;;9.78;100.00
1371;BME280;14306;49.942;11.570;2024-03-23T02:07:27;96665.75;;;9.77;100.00
1371;BME280;14306;49.942;11.570;2024-03-23T02:08:59;96667.97;;;9.75;100.00
1371;BME280;14306;49.942;11.570;2024-03-23T02:10:32;96670.84;;;9.70;100.00
1371;BME280;14306;49.942;11.570;2024-03-23T02:12:05;96664.63;;;9.78;100.00
1371;BME280;14306;49.942;11.570;2024-03-23T02:13:38;96669.91;;;9.75;100.00
1371;BME280;14306;49.942;11.570;2024-03-23T02:15:10;96647.78;;;9.64;100.00
1371;BME280;14306;49.942;11.570;2024-03-23T02:16:45;96655.41;;;9.71;100.00
1371;BME280;14306;49.942;11.570;2024-03-23T02:18:18;96655.09;;;9.72;100.00
1371;BME280;14306;49.942;11.570;2024-03-23T02:19:51;96656.69;;;9.73;100.00
1371;BME280;14306;49.942;11.570;2024-03-23T02:21:24;96640.00;;;9.80;100.00
1371;BME280;14306;49.942;11.570;2024-03-23T02:22:58;96646.34;;;9.84;100.00
1371;BME280;14306;49.942;11.570;2024-03-23T02:24:30;96643.97;;;9.91;100.00
1371;BME280;14306;49.942;11.570;2024-03-23T02:26:03;96637.47;;;9.83;100.00
1371;BME280;14306;49.942;11.570;2024-03-23T02:27:36;96634.91;;;9.87;100.00
1371;BME280;14306;49.942;11.570;2024-03-23T02:29:10;96635.06;;;9.90;100.00
1371;BME280;14306;49.942;11.570;2024-03-23T02:30:43;96631.88;;;9.88;100.00
1371;BME280;14306;49.942;11.570;2024-03-23T02:32:16;96638.06;;;9.89;100.00
1371;BME280;14306;49.942;11.570;2024-03-23T02:33:48;96622.50;;;9.86;100.00
1371;BME280;14306;49.942;11.570;2024-03-23T02:35:21;96620.56;;;9.86;100.00
1371;BME280;14306;49.942;11.570;2024-03-23T02:36:53;96625.69;;;9.96;100.00
1371;BME280;14306;49.942;11.570;2024-03-23T02:38:28;96621.72;;;9.94;100.00
1371;BME280;14306;49.942;11.570;2024-03-23T02:40:00;96615.81;;;9.92;100.00
1371;BME280;14306;49.942;11.570;2024-03-23T02:41:32;96619.78;;;10.03;100.00
1371;BME280;14306;49.942;11.570;2024-03-23T02:43:06;96604.34;;;9.95;100.00
1371;BME280;14306;49.942;11.570;2024-03-23T02:44:38;96612.66;;;9.90;100.00
1371;BME280;14306;49.942;11.570;2024-03-23T02:46:10;96610.41;;;9.92;100.00
1371;BME280;14306;49.942;11.570;2024-03-23T02:47:44;96598.63;;;9.88;100.00
1371;BME280;14306;49.942;11.570;2024-03-23T02:49:16;96598.63;;;9.79;100.00
1371;BME280;14306;49.942;11.570;2024-03-23T02:50:48;96597.84;;;9.79;100.00
1371;BME280;14306;49.942;11.570;2024-03-23T02:52:22;96592.91;;;9.89;100.00
1371;BME280;14306;49.942;11.570;2024-03-23T02:53:55;96585.09;;;9.79;100.00
1371;BME280;14306;49.942;11.570;2024-03-23T02:55:28;96584.78;;;9.81;100.00
1371;BME280;14306;49.942;11.570;2024-03-23T02:57:01;96576.38;;;9.74;100.00
1371;BME280;14306;49.942;11.570;2024-03-23T02:58:33;96590.69;;;9.83;100.00
1371;BME280;14306;49.942;11.570;2024-03-23T03:00:06;96584.00;;;9.80;100.00
1371;BME280;14306;49.942;11.570;2024-03-23T03:01:39;96572.56;;;9.83;100.00
1371;BME280;14306;49.942;11.570;2024-03-23T03:03:12;96581.44;;;9.84;100.00
1371;BME280;14306;49.942;11.570;2024-03-23T03:04:45;96578.56;;;9.97;100.00
1371;BME280;14306;49.942;11.570;2024-03-23T03:06:23;96567.78;;;10.06;100.00
1371;BME280;14306;49.942;11.570;2024-03-23T03:07:55;96580.50;;;10.05;100.00
1371;BME280;14306;49.942;11.570;2024-03-23T03:09:30;96570.16;;;10.07;100.00
1371;BME280;14306;49.942;11.570;2024-03-23T03:11:03;96574.13;;;10.18;100.00
1371;BME280;14306;49.942;11.570;2024-03-23T03:12:37;96563.94;;;10.15;100.00
1371;BME280;14306;49.942;11.570;2024-03-23T03:14:09;96565.53;;;10.16;100.00
1371;BME280;14306;49.942;11.570;2024-03-23T03:15:42;96560.28;;;10.20;100.00
1371;BME280;14306;49.942;11.570;2024-03-23T03:17:16;96551.53;;;10.14;100.00
1371;BME280;14306;49.942;11.570;2024-03-23T03:18:48;96556.59;;;10.24;100.00
1371;BME280;14306;49.942;11.570;2024-03-23T03:20:21;96552.78;;;10.25;100.00
1371;BME280;14306;49.942;11.570;2024-03-23T03:21:55;96559.59;;;10.31;100.00
1371;BME280;14306;49.942;11.570;2024-03-23T03:23:27;96547.38;;;10.25;100.00
1371;BME280;14306;49.942;11.570;2024-03-23T03:25:01;96541.50;;;10.15;100.00
1371;BME280;14306;49.942;11.570;2024-03-23T03:26:34;96540.72;;;10.06;100.00
1371;BME280;14306;49.942;11.570;2024-03-23T03:28:07;96528.78;;;10.07;100.00
1371;BME280;14306;49.942;11.570;2024-03-23T03:29:39;96532.75;;;10.09;100.00
1371;BME280;14306;49.942;11.570;2024-03-23T03:31:12;96523.81;;;10.17;100.00
1371;BME280;14306;49.942;11.570;2024-03-23T03:32:44;96527.00;;;10.19;100.00
1371;BME280;14306;49.942;11.570;2024-03-23T03:34:18;96536.09;;;10.15;100.00
1371;BME280;14306;49.942;11.570;2024-03-23T03:35:50;96535.75;;;10.25;100.00
1371;BME280;14306;49.942;11.570;2024-03-23T03:37:24;96530.97;;;10.22;100.00
1371;BME280;14306;49.942;11.570;2024-03-23T03:38:57;96514.75;;;10.22;100.00
1371;BME280;14306;49.942;11.570;2024-03-23T03:40:30;96527.94;;;10.32;100.00
1371;BME280;14306;49.942;11.570;2024-03-23T03:42:03;96527.13;;;10.31;100.00
1371;BME280;14306;49.942;11.570;2024-03-23T03:43:38;96515.97;;;10.41;100.00
1371;BME280;14306;49.942;11.570;2024-03-23T03:45:10;96519.94;;;10.35;100.00
1371;BME280;14306;49.942;11.570;2024-03-23T03:46:43;96515.47;;;10.39;100.00
1371;BME280;14306;49.942;11.570;2024-03-23T03:48:15;96508.94;;;10.40;100.00
1371;BME280;14306;49.942;11.570;2024-03-23T03:49:47;96491.59;;;10.41;100.00
1371;BME280;14306;49.942;11.570;2024-03-23T03:51:19;96484.75;;;10.35;100.00
1371;BME280;14306;49.942;11.570;2024-03-23T03:52:53;96484.19;;;10.21;100.00
1371;BME280;14306;49.942;11.570;2024-03-23T03:54:25;96491.44;;;10.38;100.00
1371;BME280;14306;49.942;11.570;2024-03-23T03:56:01;96494.16;;;10.38;100.00
1371;BME280;14306;49.942;11.570;2024-03-23T03:57:35;96489.81;;;10.45;100.00
1371;BME280;14306;49.942;11.570;2024-03-23T03:59:07;96488.41;;;10.39;100.00
1371;BME280;14306;49.942;11.570;2024-03-23T04:00:39;96491.91;;;10.40;100.00
1371;BME280;14306;49.942;11.570;2024-03-23T04:02:12;96479.84;;;10.37;100.00
1371;BME280;14306;49.942;11.570;2024-03-23T04:03:45;96493.47;;;10.49;100.00
1371;BME280;14306;49.942;11.570;2024-03-23T04:05:17;96483.94;;;10.43;100.00
1371;BME280;14306;49.942;11.570;2024-03-23T04:06:58;96477.75;;;10.43;100.00
1371;BME280;14306;49.942;11.570;2024-03-23T04:08:30;96469.34;;;10.36;100.00
1371;BME280;14306;49.942;11.570;2024-03-23T04:10:04;96468.53;;;10.35;100.00
1371;BME280;14306;49.942;11.570;2024-03-23T04:11:40;96464.38;;;10.38;100.00
1371;BME280;14306;49.942;11.570;2024-03-23T04:13:12;96455.72;;;10.44;100.00
1371;BME280;14306;49.942;11.570;2024-03-23T04:14:45;96443.66;;;10.42;100.00
1371;BME280;14306;49.942;11.570;2024-03-23T04:16:26;96429.19;;;10.38;100.00
1371;BME280;14306;49.942;11.570;2024-03-23T04:17:59;96420.66;;;10.27;100.00
1371;BME280;14306;49.942;11.570;2024-03-23T04:19:31;96426.63;;;10.41;100.00
1371;BME280;14306;49.942;11.570;2024-03-23T04:21:03;96436.06;;;10.35;100.00
1371;BME280;14306;49.942;11.570;2024-03-23T04:22:37;96414.31;;;10.23;100.00
1371;BME280;14306;49.942;11.570;2024-03-23T04:24:09;96415.56;;;10.26;100.00
1371;BME280;14306;49.942;11.570;2024-03-23T04:25:42;96417.50;;;10.25;100.00
1371;BME280;14306;49.942;11.570;2024-03-23T04:27:16;96415.56;;;10.26;100.00
1371;BME280;14306;49.942;11.570;2024-03-23T04:28:49;96411.09;;;10.30;100.00
1371;BME280;14306;49.942;11.570;2024-03-23T04:30:21;96405.66;;;10.30;100.00
1371;BME280;14306;49.942;11.570;2024-03-23T04:31:55;96407.41;;;10.34;100.00
1371;BME280;14306;49.942;11.570;2024-03-23T04:33:28;96402.50;;;10.28;100.00
1371;BME280;14306;49.942;11.570;2024-03-23T04:35:00;96405.63;;;10.38;100.00
1371;BME280;14306;49.942;11.570;2024-03-23T04:36:32;96403.06;;;10.42;100.00
1371;BME280;14306;49.942;11.570;2024-03-23T04:38:05;96400.03;;;10.43;100.00
1371;BME280;14306;49.942;11.570;2024-03-23T04:39:38;96392.13;;;10.30;100.00
1371;BME280;14306;49.942;11.570;2024-03-23T04:41:11;96376.19;;;10.37;100.00
1371;BME280;14306;49.942;11.570;2024-03-23T04:42:45;96394.16;;;10.41;100.00
1371;BME280;14306;49.942;11.570;2024-03-23T04:44:17;96390.53;;;10.37;100.00
1371;BME280;14306;49.942;11.570;2024-03-23T04:45:50;96380.78;;;10.36;100.00
1371;BME280;14306;49.942;11.570;2024-03-23T04:47:22;96370.16;;;10.31;100.00
1371;BME280;14306;49.942;11.570;2024-03-23T04:48:55;96356.03;;;10.26;100.00
1371;BME280;14306;49.942;11.570;2024-03-23T04:50:28;96367.78;;;10.30;100.00
1371;BME280;14306;49.942;11.570;2024-03-23T04:52:02;96387.41;;;10.47;100.00
1371;BME280;14306;49.942;11.570;2024-03-23T04:53:34;96402.22;;;10.50;100.00
1371;BME280;14306;49.942;11.570;2024-03-23T04:55:07;96413.78;;;10.59;100.00
1371;BME280;14306;49.942;11.570;2024-03-23T04:56:40;96446.72;;;10.90;100.00
1371;BME280;14306;49.942;11.570;2024-03-23T04:58:14;96473.69;;;11.27;100.00
1371;BME280;14306;49.942;11.570;2024-03-23T04:59:46;96476.44;;;11.39;100.00
1371;BME280;14306;49.942;11.570;2024-03-23T05:01:19;96447.56;;;10.82;100.00
1371;BME280;14306;49.942;11.570;2024-03-23T05:02:52;96430.59;;;10.44;100.00
1371;BME280;14306;49.942;11.570;2024-03-23T05:04:24;96400.41;;;10.33;100.00
1371;BME280;14306;49.942;11.570;2024-03-23T05:05:57;96390.66;;;10.03;100.00
1371;BME280;14306;49.942;11.570;2024-03-23T05:07:30;96355.94;;;9.76;100.00
1371;BME280;14306;49.942;11.570;2024-03-23T05:09:02;96359.28;;;9.73;100.00
1371;BME280;14306;49.942;11.570;2024-03-23T05:10:37;96357.03;;;9.75;100.00
1371;BME280;14306;49.942;11.570;2024-03-23T05:12:10;96346.44;;;9.62;100.00
1371;BME280;14306;49.942;11.570;2024-03-23T05:13:44;96366.31;;;9.66;100.00
1371;BME280;14306;49.942;11.570;2024-03-23T05:15:17;96361.50;;;9.71;100.00
1371;BME280;14306;49.942;11.570;2024-03-23T05:16:50;96343.56;;;9.67;100.00
1371;BME280;14306;49.942;11.570;2024-03-23T05:18:22;96327.81;;;9.69;100.00
1371;BME280;14306;49.942;11.570;2024-03-23T05:19:58;96309.06;;;9.64;100.00
1371;BME280;14306;49.942;11.570;2024-03-23T05:21:30;96288.59;;;9.54;100.00
1371;BME280;14306;49.942;11.570;2024-03-23T05:23:04;96278.75;;;9.50;100.00
1371;BME280;14306;49.942;11.570;2024-03-23T05:24:36;96271.16;;;9.43;100.00
1371;BME280;14306;49.942;11.570;2024-03-23T05:26:09;96248.97;;;9.29;100.00
1371;BME280;14306;49.942;11.570;2024-03-23T05:27:41;96259.00;;;9.29;100.00
1371;BME280;14306;49.942;11.570;2024-03-23T05:29:15;96264.22;;;9.34;100.00
1371;BME280;14306;49.942;11.570;2024-03-23T05:30:51;96260.69;;;9.42;100.00
1371;BME280;14306;49.942;11.570;2024-03-23T05:32:24;96244.19;;;9.35;100.00
1371;BME280;14306;49.942;11.570;2024-03-23T05:33:57;96251.13;;;9.44;100.00
1371;BME280;14306;49.942;11.570;2024-03-23T05:35:29;96237.91;;;9.51;100.00
1371;BME280;14306;49.942;11.570;2024-03-23T05:37:01;96222.84;;;9.42;100.00
1371;BME280;14306;49.942;11.570;2024-03-23T05:38:34;96221.84;;;9.55;100.00
1371;BME280;14306;49.942;11.570;2024-03-23T05:40:07;96235.00;;;9.56;100.00
1371;BME280;14306;49.942;11.570;2024-03-23T05:41:40;96219.16;;;9.55;100.00
1371;BME280;14306;49.942;11.570;2024-03-23T05:43:13;96240.56;;;9.60;100.00
1371;BME280;14306;49.942;11.570;2024-03-23T05:44:47;96235.28;;;9.63;100.00
1371;BME280;14306;49.942;11.570;2024-03-23T05:46:19;96235.72;;;9.74;100.00
1371;BME280;14306;49.942;11.570;2024-03-23T05:47:52;96192.84;;;9.64;100.00
1371;BME280;14306;49.942;11.570;2024-03-23T05:49:24;96201.63;;;9.81;100.00
1371;BME280;14306;49.942;11.570;2024-03-23T05:50:56;96190.53;;;9.74;100.00
1371;BME280;14306;49.942;11.570;2024-03-23T05:52:29;96193.97;;;9.63;100.00
1371;BME280;14306;49.942;11.570;2024-03-23T05:54:01;96195.16;;;9.53;100.00
1371;BME280;14306;49.942;11.570;2024-03-23T05:55:35;96187.53;;;9.47;100.00
1371;BME280;14306;49.942;11.570;2024-03-23T05:57:07;96194.94;;;9.58;100.00
1371;BME280;14306;49.942;11.570;2024-03-23T05:58:39;96187.69;;;9.50;100.00
1371;BME280;14306;49.942;11.570;2024-03-23T06:00:13;96179.91;;;9.49;100.00
1371;BME280;14306;49.942;11.570;2024-03-23T06:01:47;96194.34;;;9.53;100.00
1371;BME280;14306;49.942;11.570;2024-03-23T06:03:19;96184.94;;;9.59;100.00
1371;BME280;14306;49.942;11.570;2024-03-23T06:04:52;96166.19;;;9.54;100.00
1371;BME280;14306;49.942;11.570;2024-03-23T06:06:24;96189.16;;;9.68;100.00
1371;BME280;14306;49.942;11.570;2024-03-23T06:07:57;96177.06;;;9.66;100.00
1371;BME280;14306;49.942;11.570;2024-03-23T06:09:30;96173.59;;;9.65;100.00
1371;BME280;14306;49.942;11.570;2024-03-23T06:11:03;96172.09;;;9.76;100.00
1371;BME280;14306;49.942;11.570;2024-03-23T06:12:35;96178.09;;;9.82;100.00
1371;BME280;14306;49.942;11.570;2024-03-23T06:14:09;96174.22;;;9.91;100.00
1371;BME280;14306;49.942;11.570;2024-03-23T06:15:42;96142.63;;;9.83;100.00
1371;BME280;14306;49.942;11.570;2024-03-23T06:17:14;96159.84;;;9.99;100.00
1371;BME280;14306;49.942;11.570;2024-03-23T06:18:47;96175.16;;;10.16;100.00
1371;BME280;14306;49.942;11.570;2024-03-23T06:20:19;96173.81;;;10.22;100.00
1371;BME280;14306;49.942;11.570;2024-03-23T06:21:51;96161.97;;;10.14;100.00
1371;BME280;14306;49.942;11.570;2024-03-23T06:23:24;96168.31;;;10.18;100.00
1371;BME280;14306;49.942;11.570;2024-03-23T06:24:56;96155.63;;;10.10;100.00
1371;BME280;14306;49.942;11.570;2024-03-23T06:26:29;96166.34;;;9.98;100.00
1371;BME280;14306;49.942;11.570;2024-03-23T06:28:02;96167.03;;;9.95;100.00
1371;BME280;14306;49.942;11.570;2024-03-23T06:29:34;96157.91;;;10.00;100.00
1371;BME280;14306;49.942;11.570;2024-03-23T06:31:10;96158.72;;;10.00;100.00
1371;BME280;14306;49.942;11.570;2024-03-23T06:32:43;96162.84;;;10.06;100.00
1371;BME280;14306;49.942;11.570;2024-03-23T06:34:15;96151.13;;;9.94;100.00
1371;BME280;14306;49.942;11.570;2024-03-23T06:35:50;96154.44;;;9.99;100.00
1371;BME280;14306;49.942;11.570;2024-03-23T06:37:22;96125.94;;;9.81;100.00
1371;BME280;14306;49.942;11.570;2024-03-23T06:38:55;96147.78;;;9.97;100.00
1371;BME280;14306;49.942;11.570;2024-03-23T06:40:28;96142.34;;;9.97;100.00
1371;BME280;14306;49.942;11.570;2024-03-23T06:42:00;96158.13;;;10.15;100.00
1371;BME280;14306;49.942;11.570;2024-03-23T06:43:32;96164.41;;;10.28;100.00
1371;BME280;14306;49.942;11.570;2024-03-23T06:45:06;96176.56;;;10.34;100.00
1371;BME280;14306;49.942;11.570;2024-03-23T06:46:40;96166.59;;;10.46;100.00
1371;BME280;14306;49.942;11.570;2024-03-23T06:48:12;96179.72;;;10.56;100.00
1371;BME280;14306;49.942;11.570;2024-03-23T06:49:44;96183.81;;;10.74;100.00
1371;BME280;14306;49.942;11.570;2024-03-23T06:51:17;96186.69;;;11.02;100.00
1371;BME280;14306;49.942;11.570;2024-03-23T06:52:49;96200.41;;;11.17;100.00
1371;BME280;14306;49.942;11.570;2024-03-23T06:54:21;96186.03;;;11.53;100.00
1371;BME280;14306;49.942;11.570;2024-03-23T06:55:54;96203.44;;;11.52;100.00
1371;BME280;14306;49.942;11.570;2024-03-23T06:57:27;96225.16;;;11.64;100.00
1371;BME280;14306;49.942;11.570;2024-03-23T06:58:59;96232.03;;;11.85;100.00
1371;BME280;14306;49.942;11.570;2024-03-23T07:00:32;96227.88;;;11.76;100.00
1371;BME280;14306;49.942;11.570;2024-03-23T07:02:06;96215.78;;;11.73;100.00
1371;BME280;14306;49.942;11.570;2024-03-23T07:03:39;96225.03;;;11.84;100.00
1371;BME280;14306;49.942;11.570;2024-03-23T07:05:13;96240.19;;;11.98;100.00
1371;BME280;14306;49.942;11.570;2024-03-23T07:06:45;96255.69;;;11.73;100.00
1371;BME280;14306;49.942;11.570;2024-03-23T07:08:17;96241.91;;;11.66;100.00
1371;BME280;14306;49.942;11.570;2024-03-23T07:09:53;96229.25;;;11.70;100.00
1371;BME280;14306;49.942;11.570;2024-03-23T07:11:26;96251.16;;;11.89;100.00
1371;BME280;14306;49.942;11.570;2024-03-23T07:12:58;96245.69;;;12.13;100.00
1371;BME280;14306;49.942;11.570;2024-03-23T07:14:31;96248.38;;;12.25;100.00
1371;BME280;14306;49.942;11.570;2024-03-23T07:16:03;96254.63;;;12.26;100.00
1371;BME280;14306;49.942;11.570;2024-03-23T07:17:37;96265.91;;;12.40;100.00
1371;BME280;14306;49.942;11.570;2024-03-23T07:19:10;96266.25;;;12.66;100.00
1371;BME280;14306;49.942;11.570;2024-03-23T07:20:42;96272.00;;;12.76;100.00
1371;BME280;14306;49.942;11.570;2024-03-23T07:22:14;96262.44;;;12.55;100.00
1371;BME280;14306;49.942;11.570;2024-03-23T07:23:47;96271.56;;;12.74;100.00
1371;BME280;14306;49.942;11.570;2024-03-23T07:25:19;96277.31;;;12.73;100.00
1371;BME280;14306;49.942;11.570;2024-03-23T07:26:53;96297.06;;;12.58;100.00
1371;BME280;14306;49.942;11.570;2024-03-23T07:28:30;96288.59;;;12.87;100.00
1371;BME280;14306;49.942;11.570;2024-03-23T07:30:04;96306.03;;;12.58;100.00
1371;BME280;14306;49.942;11.570;2024-03-23T07:31:36;96291.28;;;12.59;100.00
1371;BME280;14306;49.942;11.570;2024-03-23T07:33:11;96298.84;;;12.66;100.00
1371;BME280;14306;49.942;11.570;2024-03-23T07:34:44;96289.28;;;12.84;100.00
1371;BME280;14306;49.942;11.570;2024-03-23T07:36:17;96294.34;;;12.97;100.00
1371;BME280;14306;49.942;11.570;2024-03-23T07:37:49;96311.50;;;13.13;100.00
1371;BME280;14306;49.942;11.570;2024-03-23T07:39:21;96310.53;;;13.49;100.00
1371;BME280;14306;49.942;11.570;2024-03-23T07:41:02;96314.81;;;13.34;100.00
1371;BME280;14306;49.942;11.570;2024-03-23T07:42:35;96325.28;;;13.48;100.00
1371;BME280;14306;49.942;11.570;2024-03-23T07:44:08;96331.75;;;13.43;100.00
1371;BME280;14306;49.942;11.570;2024-03-23T07:45:40;96341.47;;;13.01;100.00
1371;BME280;14306;49.942;11.570;2024-03-23T07:47:12;96336.03;;;13.01;100.00
1371;BME280;14306;49.942;11.570;2024-03-23T07:48:47;96334.69;;;12.83;100.00
1371;BME280;14306;49.942;11.570;2024-03-23T07:50:19;96336.50;;;12.79;100.00
1371;BME280;14306;49.942;11.570;2024-03-23T07:51:53;96335.59;;;12.99;100.00
1371;BME280;14306;49.942;11.570;2024-03-23T07:53:25;96342.31;;;12.66;100.00
1371;BME280;14306;49.942;11.570;2024-03-23T07:54:57;96338.97;;;12.96;100.00
1371;BME280;14306;49.942;11.570;2024-03-23T07:56:31;96350.06;;;12.91;100.00
1371;BME280;14306;49.942;11.570;2024-03-23T07:58:04;96341.53;;;12.65;100.00
1371;BME280;14306;49.942;11.570;2024-03-23T07:59:36;96349.44;;;12.70;100.00
1371;BME280;14306;49.942;11.570;2024-03-23T08:01:10;96300.53;;;12.19;100.00
1371;BME280;14306;49.942;11.570;2024-03-23T08:02:42;96343.59;;;12.44;100.00
1371;BME280;14306;49.942;11.570;2024-03-23T08:04:16;96331.19;;;12.19;100.00
1371;BME280;14306;49.942;11.570;2024-03-23T08:05:49;96345.56;;;11.83;100.00
1371;BME280;14306;49.942;11.570;2024-03-23T08:07:21;96349.59;;;11.65;100.00
1371;BME280;14306;49.942;11.570;2024-03-23T08:08:55;96367.03;;;11.56;100.00
1371;BME280;14306;49.942;11.570;2024-03-23T08:10:32;96362.09;;;11.58;100.00
1371;BME280;14306;49.942;11.570;2024-03-23T08:12:04;96353.28;;;11.61;100.00
1371;BME280;14306;49.942;11.570;2024-03-23T08:13:38;96355.47;;;11.67;100.00
1371;BME280;14306;49.942;11.570;2024-03-23T08:15:12;96363.31;;;11.48;100.00
1371;BME280;14306;49.942;11.570;2024-03-23T08:16:44;96355.59;;;11.38;100.00
1371;BME280;14306;49.942;11.570;2024-03-23T08:18:20;96367.47;;;11.78;100.00
1371;BME280;14306;49.942;11.570;2024-03-23T08:19:54;96393.25;;;11.97;100.00
1371;BME280;14306;49.942;11.570;2024-03-23T08:21:26;96402.22;;;12.21;100.00
1371;BME280;14306;49.942;11.570;2024-03-23T08:22:58;96414.78;;;12.26;100.00
1371;BME280;14306;49.942;11.570;2024-03-23T08:24:31;96407.22;;;12.19;100.00
1371;BME280;14306;49.942;11.570;2024-03-23T08:26:05;96421.91;;;12.54;100.00
1371;BME280;14306;49.942;11.570;2024-03-23T08:27:38;96446.25;;;12.63;100.00
1371;BME280;14306;49.942;11.570;2024-03-23T08:29:10;96440.91;;;12.78;100.00
1371;BME280;14306;49.942;11.570;2024-03-23T08:30:43;96443.84;;;12.49;100.00
1371;BME280;14306;49.942;11.570;2024-03-23T08:32:16;96439.44;;;12.21;100.00
1371;BME280;14306;49.942;11.570;2024-03-23T08:33:49;96442.69;;;12.02;100.00
1371;BME280;14306;49.942;11.570;2024-03-23T08:35:22;96448.34;;;12.09;100.00
1371;BME280;14306;49.942;11.570;2024-03-23T08:36:56;96433.06;;;12.05;100.00
1371;BME280;14306;49.942;11.570;2024-03-23T08:38:28;96440.44;;;12.16;100.00
1371;BME280;14306;49.942;11.570;2024-03-23T08:40:01;96445.88;;;12.28;100.00
1371;BME280;14306;49.942;11.570;2024-03-23T08:41:36;96442.41;;;12.64;100.00
1371;BME280;14306;49.942;11.570;2024-03-23T08:43:08;96444.72;;;13.13;100.00
1371;BME280;14306;49.942;11.570;2024-03-23T08:44:41;96457.19;;;13.02;100.00
1371;BME280;14306;49.942;11.570;2024-03-23T08:46:15;96460.69;;;13.15;100.00
1371;BME280;14306;49.942;11.570;2024-03-23T08:47:48;96461.53;;;13.03;100.00
1371;BME280;14306;49.942;11.570;2024-03-23T08:49:20;96465.91;;;12.96;100.00
1371;BME280;14306;49.942;11.570;2024-03-23T08:51:00;96479.66;;;12.99;100.00
1371;BME280;14306;49.942;11.570;2024-03-23T08:52:33;96476.19;;;13.26;100.00
1371;BME280;14306;49.942;11.570;2024-03-23T08:54:05;96472.16;;;12.96;100.00
1371;BME280;14306;49.942;11.570;2024-03-23T08:55:37;96476.34;;;12.70;100.00
1371;BME280;14306;49.942;11.570;2024-03-23T08:57:11;96479.06;;;12.70;100.00
1371;BME280;14306;49.942;11.570;2024-03-23T08:58:43;96498.06;;;12.70;100.00
1371;BME280;14306;49.942;11.570;2024-03-23T09:00:16;96506.56;;;12.56;100.00
1371;BME280;14306;49.942;11.570;2024-03-23T09:01:49;96490.72;;;12.46;100.00
1371;BME280;14306;49.942;11.570;2024-03-23T09:03:22;96502.75;;;12.13;100.00